sensor_id;sensor_type;location;lat;lon;timestamp;P1;durP1;ratioP1;P2;durP2;ratioP2
46216;SDS011;47258;59.424;13.482;2024-02-23T00:02:16;6.93;;;6.22;;
46216;SDS011;47258;59.424;13.482;2024-02-23T00:04:42;7.30;;;5.38;;
46216;SDS011;47258;59.424;13.482;2024-02-23T00:07:07;7.53;;;6.72;;
46216;SDS011;47258;59.424;13.482;2024-02-23T00:09:33;9.38;;;7.30;;
46216;SDS011;47258;59.424;13.482;2024-02-23T00:11:59;6.72;;;6.03;;
46216;SDS011;47258;59.424;13.482;2024-02-23T00:14:25;6.95;;;5.75;;
46216;SDS011;47258;59.424;13.482;2024-02-23T00:16:50;7.55;;;6.30;;
46216;SDS011;47258;59.424;13.482;2024-02-23T00:19:16;6.97;;;6.28;;
46216;SDS011;47258;59.424;13.482;2024-02-23T00:21:44;7.40;;;5.88;;
46216;SDS011;47258;59.424;13.482;2024-02-23T00:24:14;10.77;;;5.65;;
46216;SDS011;47258;59.424;13.482;2024-02-23T00:26:41;6.25;;;5.63;;
46216;SDS011;47258;59.424;13.482;2024-02-23T00:29:07;8.68;;;5.97;;
46216;SDS011;47258;59.424;13.482;2024-02-23T00:31:34;6.07;;;5.47;;
46216;SDS011;47258;59.424;13.482;2024-02-23T00:34:02;8.38;;;6.13;;
46216;SDS011;47258;59.424;13.482;2024-02-23T00:36:28;6.68;;;5.97;;
46216;SDS011;47258;59.424;13.482;2024-02-23T00:38:54;7.60;;;6.20;;
46216;SDS011;47258;59.424;13.482;2024-02-23T00:41:20;6.13;;;5.20;;
46216;SDS011;47258;59.424;13.482;2024-02-23T00:43:45;6.88;;;6.20;;
46216;SDS011;47258;59.424;13.482;2024-02-23T00:46:12;5.80;;;5.28;;
46216;SDS011;47258;59.424;13.482;2024-02-23T00:48:39;7.75;;;6.15;;
46216;SDS011;47258;59.424;13.482;2024-02-23T00:51:05;8.05;;;6.15;;
46216;SDS011;47258;59.424;13.482;2024-02-23T00:53:32;6.55;;;5.68;;
46216;SDS011;47258;59.424;13.482;2024-02-23T00:55:58;7.15;;;5.55;;
46216;SDS011;47258;59.424;13.482;2024-02-23T00:58:24;6.78;;;6.07;;
46216;SDS011;47258;59.424;13.482;2024-02-23T01:00:49;6.90;;;5.38;;
46216;SDS011;47258;59.424;13.482;2024-02-23T01:03:15;6.78;;;5.65;;
46216;SDS011;47258;59.424;13.482;2024-02-23T01:05:41;6.90;;;5.80;;
46216;SDS011;47258;59.424;13.482;2024-02-23T01:08:07;5.93;;;5.32;;
46216;SDS011;47258;59.424;13.482;2024-02-23T01:10:33;6.97;;;6.07;;
46216;SDS011;47258;59.424;13.482;2024-02-23T01:12:59;5.20;;;4.72;;
46216;SDS011;47258;59.424;13.482;2024-02-23T01:15:25;6.18;;;5.53;;
46216;SDS011;47258;59.424;13.482;2024-02-23T01:17:51;6.85;;;5.95;;
46216;SDS011;47258;59.424;13.482;2024-02-23T01:20:17;6.22;;;5.45;;
46216;SDS011;47258;59.424;13.482;2024-02-23T01:22:42;5.55;;;4.70;;
46216;SDS011;47258;59.424;13.482;2024-02-23T01:25:08;6.15;;;5.55;;
46216;SDS011;47258;59.424;13.482;2024-02-23T01:27:34;7.30;;;5.97;;
46216;SDS011;47258;59.424;13.482;2024-02-23T01:30:00;6.72;;;6.03;;
46216;SDS011;47258;59.424;13.482;2024-02-23T01:32:25;7.13;;;6.43;;
46216;SDS011;47258;59.424;13.482;2024-02-23T01:34:51;6.22;;;5.63;;
46216;SDS011;47258;59.424;13.482;2024-02-23T01:37:17;7.15;;;5.90;;
46216;SDS011;47258;59.424;13.482;2024-02-23T01:39:43;9.05;;;7.03;;
46216;SDS011;47258;59.424;13.482;2024-02-23T01:42:08;8.73;;;6.95;;
46216;SDS011;47258;59.424;13.482;2024-02-23T01:44:34;7.93;;;6.68;;
46216;SDS011;47258;59.424;13.482;2024-02-23T01:47:00;9.32;;;7.13;;
46216;SDS011;47258;59.424;13.482;2024-02-23T01:49:26;8.82;;;7.50;;
46216;SDS011;47258;59.424;13.482;2024-02-23T01:52:00;6.00;;;5.32;;
46216;SDS011;47258;59.424;13.482;2024-02-23T01:56:53;9.95;;;6.90;;
46216;SDS011;47258;59.424;13.482;2024-02-23T01:59:19;9.38;;;7.57;;
46216;SDS011;47258;59.424;13.482;2024-02-23T02:01:46;8.40;;;6.88;;
46216;SDS011;47258;59.424;13.482;2024-02-23T02:04:12;8.70;;;6.60;;
46216;SDS011;47258;59.424;13.482;2024-02-23T02:06:38;7.90;;;6.47;;
46216;SDS011;47258;59.424;13.482;2024-02-23T02:09:04;9.00;;;7.43;;
46216;SDS011;47258;59.424;13.482;2024-02-23T02:11:30;9.43;;;6.85;;
46216;SDS011;47258;59.424;13.482;2024-02-23T02:13:56;8.98;;;7.15;;
46216;SDS011;47258;59.424;13.482;2024-02-23T02:16:22;9.52;;;7.10;;
46216;SDS011;47258;59.424;13.482;2024-02-23T02:18:47;7.05;;;6.35;;
46216;SDS011;47258;59.424;13.482;2024-02-23T02:21:13;10.10;;;7.75;;
46216;SDS011;47258;59.424;13.482;2024-02-23T02:23:39;8.48;;;6.75;;
46216;SDS011;47258;59.424;13.482;2024-02-23T02:26:05;9.73;;;6.55;;
46216;SDS011;47258;59.424;13.482;2024-02-23T02:28:31;10.30;;;7.50;;
46216;SDS011;47258;59.424;13.482;2024-02-23T02:30:57;7.95;;;6.93;;
46216;SDS011;47258;59.424;13.482;2024-02-23T02:33:23;9.02;;;6.85;;
46216;SDS011;47258;59.424;13.482;2024-02-23T02:35:48;11.65;;;8.05;;
46216;SDS011;47258;59.424;13.482;2024-02-23T02:38:17;8.88;;;6.53;;
46216;SDS011;47258;59.424;13.482;2024-02-23T02:40:43;7.10;;;6.15;;
46216;SDS011;47258;59.424;13.482;2024-02-23T02:43:09;7.72;;;6.57;;
46216;SDS011;47258;59.424;13.482;2024-02-23T02:45:35;7.90;;;6.03;;
46216;SDS011;47258;59.424;13.482;2024-02-23T02:48:00;7.22;;;6.45;;
46216;SDS011;47258;59.424;13.482;2024-02-23T02:50:27;9.10;;;6.28;;
46216;SDS011;47258;59.424;13.482;2024-02-23T02:52:52;9.27;;;6.78;;
46216;SDS011;47258;59.424;13.482;2024-02-23T02:55:18;9.35;;;6.95;;
46216;SDS011;47258;59.424;13.482;2024-02-23T02:57:44;8.30;;;7.05;;
46216;SDS011;47258;59.424;13.482;2024-02-23T03:00:10;7.65;;;6.85;;
46216;SDS011;47258;59.424;13.482;2024-02-23T03:02:37;7.80;;;6.78;;
46216;SDS011;47258;59.424;13.482;2024-02-23T03:05:02;7.75;;;6.53;;
46216;SDS011;47258;59.424;13.482;2024-02-23T03:07:28;8.60;;;5.75;;
46216;SDS011;47258;59.424;13.482;2024-02-23T03:09:54;8.20;;;6.88;;
46216;SDS011;47258;59.424;13.482;2024-02-23T03:12:20;7.93;;;5.82;;
46216;SDS011;47258;59.424;13.482;2024-02-23T03:14:46;7.47;;;6.40;;
46216;SDS011;47258;59.424;13.482;2024-02-23T03:17:12;8.10;;;5.82;;
46216;SDS011;47258;59.424;13.482;2024-02-23T03:19:38;8.50;;;6.45;;
46216;SDS011;47258;59.424;13.482;2024-02-23T03:22:04;8.38;;;6.03;;
46216;SDS011;47258;59.424;13.482;2024-02-23T03:24:31;7.10;;;5.35;;
46216;SDS011;47258;59.424;13.482;2024-02-23T03:26:56;8.80;;;6.28;;
46216;SDS011;47258;59.424;13.482;2024-02-23T03:29:22;9.82;;;6.50;;
46216;SDS011;47258;59.424;13.482;2024-02-23T03:31:54;7.82;;;6.80;;
46216;SDS011;47258;59.424;13.482;2024-02-23T03:34:21;8.30;;;6.68;;
46216;SDS011;47258;59.424;13.482;2024-02-23T03:36:46;11.38;;;6.80;;
46216;SDS011;47258;59.424;13.482;2024-02-23T03:39:12;9.75;;;7.43;;
46216;SDS011;47258;59.424;13.482;2024-02-23T03:41:38;9.40;;;7.05;;
46216;SDS011;47258;59.424;13.482;2024-02-23T03:44:04;9.25;;;7.35;;
46216;SDS011;47258;59.424;13.482;2024-02-23T03:46:30;7.80;;;6.28;;
46216;SDS011;47258;59.424;13.482;2024-02-23T03:48:56;10.15;;;7.00;;
46216;SDS011;47258;59.424;13.482;2024-02-23T03:51:22;9.23;;;6.97;;
46216;SDS011;47258;59.424;13.482;2024-02-23T03:53:48;9.05;;;6.65;;
46216;SDS011;47258;59.424;13.482;2024-02-23T03:56:14;7.35;;;6.55;;
46216;SDS011;47258;59.424;13.482;2024-02-23T03:58:40;8.98;;;7.35;;
46216;SDS011;47258;59.424;13.482;2024-02-23T04:01:06;10.05;;;7.10;;
46216;SDS011;47258;59.424;13.482;2024-02-23T04:03:32;9.30;;;6.43;;
46216;SDS011;47258;59.424;13.482;2024-02-23T04:05:57;9.73;;;7.13;;
46216;SDS011;47258;59.424;13.482;2024-02-23T04:08:23;6.13;;;5.13;;
46216;SDS011;47258;59.424;13.482;2024-02-23T04:10:49;7.82;;;6.00;;
46216;SDS011;47258;59.424;13.482;2024-02-23T04:13:14;8.43;;;6.55;;
46216;SDS011;47258;59.424;13.482;2024-02-23T04:15:42;8.25;;;6.53;;
46216;SDS011;47258;59.424;13.482;2024-02-23T04:18:08;10.90;;;7.05;;
46216;SDS011;47258;59.424;13.482;2024-02-23T04:20:35;8.38;;;6.68;;
46216;SDS011;47258;59.424;13.482;2024-02-23T04:23:00;8.32;;;6.30;;
46216;SDS011;47258;59.424;13.482;2024-02-23T04:25:26;7.47;;;6.63;;
46216;SDS011;47258;59.424;13.482;2024-02-23T04:27:52;8.05;;;6.90;;
46216;SDS011;47258;59.424;13.482;2024-02-23T04:30:17;8.10;;;6.60;;
46216;SDS011;47258;59.424;13.482;2024-02-23T04:32:43;8.60;;;6.85;;
46216;SDS011;47258;59.424;13.482;2024-02-23T04:35:09;9.20;;;7.70;;
46216;SDS011;47258;59.424;13.482;2024-02-23T04:37:35;10.43;;;7.60;;
46216;SDS011;47258;59.424;13.482;2024-02-23T04:40:01;7.88;;;6.28;;
46216;SDS011;47258;59.424;13.482;2024-02-23T04:42:27;9.48;;;7.50;;
46216;SDS011;47258;59.424;13.482;2024-02-23T04:44:53;12.00;;;7.20;;
46216;SDS011;47258;59.424;13.482;2024-02-23T04:47:20;10.52;;;6.93;;
46216;SDS011;47258;59.424;13.482;2024-02-23T04:49:46;8.80;;;7.07;;
46216;SDS011;47258;59.424;13.482;2024-02-23T04:52:11;7.90;;;6.25;;
46216;SDS011;47258;59.424;13.482;2024-02-23T04:54:37;8.88;;;6.97;;
46216;SDS011;47258;59.424;13.482;2024-02-23T04:57:03;7.88;;;6.03;;
46216;SDS011;47258;59.424;13.482;2024-02-23T04:59:29;8.45;;;6.03;;
46216;SDS011;47258;59.424;13.482;2024-02-23T05:01:56;7.55;;;5.45;;
46216;SDS011;47258;59.424;13.482;2024-02-23T05:04:22;8.05;;;5.07;;
46216;SDS011;47258;59.424;13.482;2024-02-23T05:06:48;7.57;;;5.53;;
46216;SDS011;47258;59.424;13.482;2024-02-23T05:09:14;11.02;;;6.93;;
46216;SDS011;47258;59.424;13.482;2024-02-23T05:11:39;7.43;;;5.35;;
46216;SDS011;47258;59.424;13.482;2024-02-23T05:14:05;6.70;;;4.55;;
46216;SDS011;47258;59.424;13.482;2024-02-23T05:16:31;6.40;;;5.30;;
46216;SDS011;47258;59.424;13.482;2024-02-23T05:18:57;5.97;;;5.38;;
46216;SDS011;47258;59.424;13.482;2024-02-23T05:21:23;5.65;;;4.65;;
46216;SDS011;47258;59.424;13.482;2024-02-23T05:23:48;9.48;;;5.03;;
46216;SDS011;47258;59.424;13.482;2024-02-23T05:26:14;6.10;;;5.40;;
46216;SDS011;47258;59.424;13.482;2024-02-23T05:28:40;6.20;;;4.95;;
46216;SDS011;47258;59.424;13.482;2024-02-23T05:31:06;5.53;;;4.82;;
46216;SDS011;47258;59.424;13.482;2024-02-23T05:33:32;4.80;;;4.22;;
46216;SDS011;47258;59.424;13.482;2024-02-23T05:35:58;5.95;;;4.47;;
46216;SDS011;47258;59.424;13.482;2024-02-23T05:38:23;5.70;;;4.60;;
46216;SDS011;47258;59.424;13.482;2024-02-23T05:40:49;7.00;;;4.53;;
46216;SDS011;47258;59.424;13.482;2024-02-23T05:43:14;7.00;;;4.40;;
46216;SDS011;47258;59.424;13.482;2024-02-23T05:45:40;5.90;;;3.42;;
46216;SDS011;47258;59.424;13.482;2024-02-23T05:48:06;4.05;;;3.42;;
46216;SDS011;47258;59.424;13.482;2024-02-23T05:50:32;4.55;;;3.08;;
46216;SDS011;47258;59.424;13.482;2024-02-23T05:52:58;4.32;;;3.38;;
46216;SDS011;47258;59.424;13.482;2024-02-23T05:55:24;2.78;;;2.53;;
46216;SDS011;47258;59.424;13.482;2024-02-23T05:57:49;6.18;;;2.53;;
46216;SDS011;47258;59.424;13.482;2024-02-23T06:00:18;4.65;;;3.28;;
46216;SDS011;47258;59.424;13.482;2024-02-23T06:02:45;3.97;;;2.70;;
46216;SDS011;47258;59.424;13.482;2024-02-23T06:05:11;3.25;;;2.78;;
46216;SDS011;47258;59.424;13.482;2024-02-23T06:07:37;3.30;;;2.10;;
46216;SDS011;47258;59.424;13.482;2024-02-23T06:10:03;2.80;;;1.90;;
46216;SDS011;47258;59.424;13.482;2024-02-23T06:12:30;3.47;;;2.15;;
46216;SDS011;47258;59.424;13.482;2024-02-23T06:14:55;2.20;;;2.00;;
46216;SDS011;47258;59.424;13.482;2024-02-23T06:17:23;2.60;;;1.65;;
46216;SDS011;47258;59.424;13.482;2024-02-23T06:19:49;2.25;;;1.67;;
46216;SDS011;47258;59.424;13.482;2024-02-23T06:22:15;2.00;;;1.88;;
46216;SDS011;47258;59.424;13.482;2024-02-23T06:24:46;2.08;;;1.90;;
46216;SDS011;47258;59.424;13.482;2024-02-23T06:27:12;3.45;;;1.88;;
46216;SDS011;47258;59.424;13.482;2024-02-23T06:29:37;1.98;;;1.80;;
46216;SDS011;47258;59.424;13.482;2024-02-23T06:32:03;1.90;;;1.77;;
46216;SDS011;47258;59.424;13.482;2024-02-23T06:34:29;1.75;;;1.65;;
46216;SDS011;47258;59.424;13.482;2024-02-23T06:36:55;1.75;;;1.27;;
46216;SDS011;47258;59.424;13.482;2024-02-23T06:39:21;1.63;;;1.50;;
46216;SDS011;47258;59.424;13.482;2024-02-23T06:41:47;2.38;;;1.38;;
46216;SDS011;47258;59.424;13.482;2024-02-23T06:44:12;2.42;;;1.80;;
46216;SDS011;47258;59.424;13.482;2024-02-23T06:46:38;1.30;;;1.20;;
46216;SDS011;47258;59.424;13.482;2024-02-23T06:49:04;1.65;;;1.55;;
46216;SDS011;47258;59.424;13.482;2024-02-23T06:51:31;1.80;;;1.67;;
46216;SDS011;47258;59.424;13.482;2024-02-23T06:53:57;1.67;;;1.58;;
46216;SDS011;47258;59.424;13.482;2024-02-23T06:56:23;2.78;;;1.75;;
46216;SDS011;47258;59.424;13.482;2024-02-23T06:58:48;1.90;;;1.80;;
46216;SDS011;47258;59.424;13.482;2024-02-23T07:01:14;5.13;;;1.60;;
46216;SDS011;47258;59.424;13.482;2024-02-23T07:03:40;2.15;;;1.50;;
46216;SDS011;47258;59.424;13.482;2024-02-23T07:06:10;2.55;;;1.23;;
46216;SDS011;47258;59.424;13.482;2024-02-23T07:08:36;2.20;;;1.35;;
46216;SDS011;47258;59.424;13.482;2024-02-23T07:11:02;3.08;;;1.52;;
46216;SDS011;47258;59.424;13.482;2024-02-23T07:13:27;1.50;;;1.40;;
46216;SDS011;47258;59.424;13.482;2024-02-23T07:15:55;1.60;;;1.15;;
46216;SDS011;47258;59.424;13.482;2024-02-23T07:18:21;1.20;;;1.10;;
46216;SDS011;47258;59.424;13.482;2024-02-23T07:20:47;0.85;;;0.85;;
46216;SDS011;47258;59.424;13.482;2024-02-23T07:23:13;1.33;;;0.90;;
46216;SDS011;47258;59.424;13.482;2024-02-23T07:25:41;1.00;;;1.00;;
46216;SDS011;47258;59.424;13.482;2024-02-23T07:28:07;1.13;;;1.13;;
46216;SDS011;47258;59.424;13.482;2024-02-23T07:30:32;0.52;;;0.52;;
46216;SDS011;47258;59.424;13.482;2024-02-23T07:33:00;7.68;;;1.33;;
46216;SDS011;47258;59.424;13.482;2024-02-23T07:35:26;0.65;;;0.65;;
46216;SDS011;47258;59.424;13.482;2024-02-23T07:37:53;0.93;;;0.60;;
46216;SDS011;47258;59.424;13.482;2024-02-23T07:40:20;1.35;;;0.52;;
46216;SDS011;47258;59.424;13.482;2024-02-23T07:42:45;1.17;;;0.98;;
46216;SDS011;47258;59.424;13.482;2024-02-23T07:45:11;0.52;;;0.52;;
46216;SDS011;47258;59.424;13.482;2024-02-23T07:47:37;0.30;;;0.25;;
46216;SDS011;47258;59.424;13.482;2024-02-23T07:50:03;1.35;;;0.30;;
46216;SDS011;47258;59.424;13.482;2024-02-23T07:52:28;1.20;;;0.40;;
46216;SDS011;47258;59.424;13.482;2024-02-23T07:54:54;1.00;;;0.32;;
46216;SDS011;47258;59.424;13.482;2024-02-23T07:57:20;0.93;;;0.32;;
46216;SDS011;47258;59.424;13.482;2024-02-23T07:59:46;1.30;;;0.20;;
46216;SDS011;47258;59.424;13.482;2024-02-23T08:02:14;4.95;;;0.40;;
46216;SDS011;47258;59.424;13.482;2024-02-23T08:04:40;3.03;;;0.47;;
46216;SDS011;47258;59.424;13.482;2024-02-23T08:07:07;0.63;;;0.25;;
46216;SDS011;47258;59.424;13.482;2024-02-23T08:09:33;6.25;;;1.50;;
46216;SDS011;47258;59.424;13.482;2024-02-23T08:11:59;2.60;;;0.40;;
46216;SDS011;47258;59.424;13.482;2024-02-23T08:14:24;0.30;;;0.30;;
46216;SDS011;47258;59.424;13.482;2024-02-23T08:16:50;1.67;;;0.45;;
46216;SDS011;47258;59.424;13.482;2024-02-23T08:19:16;2.40;;;1.13;;
46216;SDS011;47258;59.424;13.482;2024-02-23T08:21:42;4.82;;;0.63;;
46216;SDS011;47258;59.424;13.482;2024-02-23T08:24:09;4.65;;;0.50;;
46216;SDS011;47258;59.424;13.482;2024-02-23T08:26:34;3.13;;;0.40;;
46216;SDS011;47258;59.424;13.482;2024-02-23T08:29:03;4.45;;;0.73;;
46216;SDS011;47258;59.424;13.482;2024-02-23T08:31:29;3.70;;;0.98;;
46216;SDS011;47258;59.424;13.482;2024-02-23T08:33:55;4.47;;;0.52;;
46216;SDS011;47258;59.424;13.482;2024-02-23T08:36:21;1.42;;;0.57;;
46216;SDS011;47258;59.424;13.482;2024-02-23T08:38:47;3.85;;;0.88;;
46216;SDS011;47258;59.424;13.482;2024-02-23T08:41:12;4.13;;;1.00;;
46216;SDS011;47258;59.424;13.482;2024-02-23T08:43:38;5.05;;;1.05;;
46216;SDS011;47258;59.424;13.482;2024-02-23T08:46:04;3.38;;;0.80;;
46216;SDS011;47258;59.424;13.482;2024-02-23T08:48:31;1.55;;;0.80;;
46216;SDS011;47258;59.424;13.482;2024-02-23T08:50:57;5.47;;;0.70;;
46216;SDS011;47258;59.424;13.482;2024-02-23T08:53:22;4.22;;;1.00;;
46216;SDS011;47258;59.424;13.482;2024-02-23T08:55:48;4.57;;;0.70;;
46216;SDS011;47258;59.424;13.482;2024-02-23T08:58:14;5.97;;;1.48;;
46216;SDS011;47258;59.424;13.482;2024-02-23T09:00:40;4.18;;;0.93;;
46216;SDS011;47258;59.424;13.482;2024-02-23T09:03:06;6.25;;;1.27;;
46216;SDS011;47258;59.424;13.482;2024-02-23T09:05:32;4.25;;;0.90;;
46216;SDS011;47258;59.424;13.482;2024-02-23T09:07:57;8.80;;;1.05;;
46216;SDS011;47258;59.424;13.482;2024-02-23T09:10:23;7.07;;;1.80;;
46216;SDS011;47258;59.424;13.482;2024-02-23T09:12:49;2.55;;;1.20;;
46216;SDS011;47258;59.424;13.482;2024-02-23T09:15:14;1.02;;;0.95;;
46216;SDS011;47258;59.424;13.482;2024-02-23T09:17:40;3.38;;;1.13;;
46216;SDS011;47258;59.424;13.482;2024-02-23T09:20:06;2.92;;;0.68;;
46216;SDS011;47258;59.424;13.482;2024-02-23T09:22:33;4.30;;;2.22;;
46216;SDS011;47258;59.424;13.482;2024-02-23T09:24:59;7.82;;;2.08;;
46216;SDS011;47258;59.424;13.482;2024-02-23T09:27:24;4.80;;;1.20;;
46216;SDS011;47258;59.424;13.482;2024-02-23T09:29:50;4.90;;;0.93;;
46216;SDS011;47258;59.424;13.482;2024-02-23T09:32:16;8.40;;;0.95;;
46216;SDS011;47258;59.424;13.482;2024-02-23T09:34:42;4.55;;;1.13;;
46216;SDS011;47258;59.424;13.482;2024-02-23T09:37:08;5.05;;;1.48;;
46216;SDS011;47258;59.424;13.482;2024-02-23T09:39:34;6.00;;;1.00;;
46216;SDS011;47258;59.424;13.482;2024-02-23T09:42:00;6.45;;;1.13;;
46216;SDS011;47258;59.424;13.482;2024-02-23T09:44:34;5.15;;;0.85;;
46216;SDS011;47258;59.424;13.482;2024-02-23T09:47:04;2.70;;;0.90;;
46216;SDS011;47258;59.424;13.482;2024-02-23T09:49:38;4.85;;;1.10;;
46216;SDS011;47258;59.424;13.482;2024-02-23T09:52:07;3.80;;;0.95;;
46216;SDS011;47258;59.424;13.482;2024-02-23T09:54:39;2.70;;;0.80;;
46216;SDS011;47258;59.424;13.482;2024-02-23T09:57:06;5.18;;;1.40;;
46216;SDS011;47258;59.424;13.482;2024-02-23T09:59:34;9.90;;;1.58;;
46216;SDS011;47258;59.424;13.482;2024-02-23T10:02:01;2.33;;;0.80;;
46216;SDS011;47258;59.424;13.482;2024-02-23T10:04:36;6.47;;;2.00;;
46216;SDS011;47258;59.424;13.482;2024-02-23T10:07:04;16.63;;;1.92;;
46216;SDS011;47258;59.424;13.482;2024-02-23T10:09:31;3.75;;;1.27;;
46216;SDS011;47258;59.424;13.482;2024-02-23T10:11:56;4.85;;;0.80;;
46216;SDS011;47258;59.424;13.482;2024-02-23T10:14:22;6.22;;;1.60;;
46216;SDS011;47258;59.424;13.482;2024-02-23T10:16:48;6.07;;;1.52;;
46216;SDS011;47258;59.424;13.482;2024-02-23T10:19:22;6.55;;;1.85;;
46216;SDS011;47258;59.424;13.482;2024-02-23T10:21:53;7.40;;;1.45;;
46216;SDS011;47258;59.424;13.482;2024-02-23T10:24:19;2.95;;;0.88;;
46216;SDS011;47258;59.424;13.482;2024-02-23T10:26:46;7.82;;;1.42;;
46216;SDS011;47258;59.424;13.482;2024-02-23T11:28:22;5.20;;;1.17;;
46216;SDS011;47258;59.424;13.482;2024-02-23T11:30:49;5.25;;;1.80;;
46216;SDS011;47258;59.424;13.482;2024-02-23T11:33:25;6.78;;;1.30;;
46216;SDS011;47258;59.424;13.482;2024-02-23T11:35:51;8.40;;;1.65;;
46216;SDS011;47258;59.424;13.482;2024-02-23T11:38:17;3.65;;;1.80;;
46216;SDS011;47258;59.424;13.482;2024-02-23T11:40:46;8.15;;;2.05;;
46216;SDS011;47258;59.424;13.482;2024-02-23T11:43:13;7.93;;;2.30;;
46216;SDS011;47258;59.424;13.482;2024-02-23T11:45:40;10.38;;;2.67;;
46216;SDS011;47258;59.424;13.482;2024-02-23T11:48:06;4.40;;;1.77;;
46216;SDS011;47258;59.424;13.482;2024-02-23T11:50:32;6.40;;;1.88;;
46216;SDS011;47258;59.424;13.482;2024-02-23T11:52:59;11.60;;;2.83;;
46216;SDS011;47258;59.424;13.482;2024-02-23T11:55:25;6.88;;;2.40;;
46216;SDS011;47258;59.424;13.482;2024-02-23T11:57:51;5.35;;;1.45;;
46216;SDS011;47258;59.424;13.482;2024-02-23T12:00:17;8.05;;;3.30;;
46216;SDS011;47258;59.424;13.482;2024-02-23T12:02:46;4.30;;;1.67;;
46216;SDS011;47258;59.424;13.482;2024-02-23T12:05:14;7.53;;;2.25;;
46216;SDS011;47258;59.424;13.482;2024-02-23T12:07:40;13.65;;;1.67;;
46216;SDS011;47258;59.424;13.482;2024-02-23T12:10:07;7.30;;;1.55;;
46216;SDS011;47258;59.424;13.482;2024-02-23T12:12:33;10.32;;;2.80;;
46216;SDS011;47258;59.424;13.482;2024-02-23T12:14:59;7.10;;;1.42;;
46216;SDS011;47258;59.424;13.482;2024-02-23T12:17:25;8.55;;;1.85;;
46216;SDS011;47258;59.424;13.482;2024-02-23T12:19:57;9.30;;;2.17;;
46216;SDS011;47258;59.424;13.482;2024-02-23T12:22:26;11.68;;;1.90;;
46216;SDS011;47258;59.424;13.482;2024-02-23T12:24:52;13.48;;;3.05;;
46216;SDS011;47258;59.424;13.482;2024-02-23T12:27:18;6.63;;;1.60;;
46216;SDS011;47258;59.424;13.482;2024-02-23T12:29:51;4.13;;;1.85;;
46216;SDS011;47258;59.424;13.482;2024-02-23T12:32:19;8.30;;;1.95;;
46216;SDS011;47258;59.424;13.482;2024-02-23T12:34:45;8.93;;;2.35;;
46216;SDS011;47258;59.424;13.482;2024-02-23T12:37:15;8.25;;;1.83;;
46216;SDS011;47258;59.424;13.482;2024-02-23T12:39:44;10.00;;;1.83;;
46216;SDS011;47258;59.424;13.482;2024-02-23T12:42:10;17.98;;;3.30;;
46216;SDS011;47258;59.424;13.482;2024-02-23T12:44:36;10.23;;;2.00;;
46216;SDS011;47258;59.424;13.482;2024-02-23T12:47:01;14.45;;;2.70;;
46216;SDS011;47258;59.424;13.482;2024-02-23T12:49:28;10.13;;;1.77;;
46216;SDS011;47258;59.424;13.482;2024-02-23T12:51:54;20.00;;;3.22;;
46216;SDS011;47258;59.424;13.482;2024-02-23T12:54:20;18.35;;;2.03;;
46216;SDS011;47258;59.424;13.482;2024-02-23T12:56:46;6.43;;;2.03;;
46216;SDS011;47258;59.424;13.482;2024-02-23T12:59:11;6.03;;;1.55;;
46216;SDS011;47258;59.424;13.482;2024-02-23T13:01:37;9.60;;;2.08;;
46216;SDS011;47258;59.424;13.482;2024-02-23T13:04:04;12.25;;;3.03;;
46216;SDS011;47258;59.424;13.482;2024-02-23T13:06:38;9.48;;;3.17;;
46216;SDS011;47258;59.424;13.482;2024-02-23T13:09:04;11.52;;;2.05;;
46216;SDS011;47258;59.424;13.482;2024-02-23T13:11:33;9.40;;;2.13;;
46216;SDS011;47258;59.424;13.482;2024-02-23T13:16:25;11.45;;;2.05;;
46216;SDS011;47258;59.424;13.482;2024-02-23T13:18:51;11.75;;;2.72;;
46216;SDS011;47258;59.424;13.482;2024-02-23T13:21:17;11.18;;;2.05;;
46216;SDS011;47258;59.424;13.482;2024-02-23T13:23:43;10.75;;;2.83;;
46216;SDS011;47258;59.424;13.482;2024-02-23T13:26:08;9.05;;;2.45;;
46216;SDS011;47258;59.424;13.482;2024-02-23T13:28:35;11.80;;;1.90;;
46216;SDS011;47258;59.424;13.482;2024-02-23T13:31:02;9.82;;;2.30;;
46216;SDS011;47258;59.424;13.482;2024-02-23T13:33:28;9.88;;;2.55;;
46216;SDS011;47258;59.424;13.482;2024-02-23T13:35:54;14.88;;;4.28;;
46216;SDS011;47258;59.424;13.482;2024-02-23T13:38:20;8.35;;;1.77;;
46216;SDS011;47258;59.424;13.482;2024-02-23T13:40:46;10.90;;;1.75;;
46216;SDS011;47258;59.424;13.482;2024-02-23T13:43:12;11.25;;;1.80;;
46216;SDS011;47258;59.424;13.482;2024-02-23T13:45:50;26.05;;;1.88;;
46216;SDS011;47258;59.424;13.482;2024-02-23T13:48:17;6.90;;;2.10;;
46216;SDS011;47258;59.424;13.482;2024-02-23T13:50:46;7.30;;;2.22;;
46216;SDS011;47258;59.424;13.482;2024-02-23T13:53:12;10.57;;;2.00;;
46216;SDS011;47258;59.424;13.482;2024-02-23T13:55:38;9.20;;;2.28;;
46216;SDS011;47258;59.424;13.482;2024-02-23T13:58:05;11.00;;;2.20;;
46216;SDS011;47258;59.424;13.482;2024-02-23T14:00:32;10.65;;;2.72;;
46216;SDS011;47258;59.424;13.482;2024-02-23T14:02:57;7.57;;;1.63;;
46216;SDS011;47258;59.424;13.482;2024-02-23T14:05:23;9.75;;;1.40;;
46216;SDS011;47258;59.424;13.482;2024-02-23T14:07:50;10.85;;;2.20;;
46216;SDS011;47258;59.424;13.482;2024-02-23T14:10:18;11.27;;;2.50;;
46216;SDS011;47258;59.424;13.482;2024-02-23T14:12:44;6.80;;;2.42;;
46216;SDS011;47258;59.424;13.482;2024-02-23T14:15:10;9.90;;;2.10;;
46216;SDS011;47258;59.424;13.482;2024-02-23T14:17:37;9.30;;;1.88;;
46216;SDS011;47258;59.424;13.482;2024-02-23T14:20:03;9.93;;;1.65;;
46216;SDS011;47258;59.424;13.482;2024-02-23T14:22:30;9.35;;;2.00;;
46216;SDS011;47258;59.424;13.482;2024-02-23T14:24:56;11.73;;;1.67;;
46216;SDS011;47258;59.424;13.482;2024-02-23T14:27:22;7.90;;;2.58;;
46216;SDS011;47258;59.424;13.482;2024-02-23T14:29:48;8.77;;;1.98;;
46216;SDS011;47258;59.424;13.482;2024-02-23T14:32:15;6.70;;;2.17;;
46216;SDS011;47258;59.424;13.482;2024-02-23T14:34:42;13.55;;;2.38;;
46216;SDS011;47258;59.424;13.482;2024-02-23T14:37:07;12.35;;;2.05;;
46216;SDS011;47258;59.424;13.482;2024-02-23T14:39:33;8.82;;;3.05;;
46216;SDS011;47258;59.424;13.482;2024-02-23T14:42:02;8.73;;;1.60;;
46216;SDS011;47258;59.424;13.482;2024-02-23T14:44:28;7.82;;;1.75;;
46216;SDS011;47258;59.424;13.482;2024-02-23T14:46:54;6.63;;;1.67;;
46216;SDS011;47258;59.424;13.482;2024-02-23T14:49:20;10.57;;;1.92;;
46216;SDS011;47258;59.424;13.482;2024-02-23T14:51:45;8.70;;;2.28;;
46216;SDS011;47258;59.424;13.482;2024-02-23T14:54:13;8.43;;;2.70;;
46216;SDS011;47258;59.424;13.482;2024-02-23T14:56:39;11.00;;;2.13;;
46216;SDS011;47258;59.424;13.482;2024-02-23T14:59:08;5.57;;;1.45;;
46216;SDS011;47258;59.424;13.482;2024-02-23T15:01:35;13.83;;;1.87;;
46216;SDS011;47258;59.424;13.482;2024-02-23T15:04:06;11.75;;;2.67;;
46216;SDS011;47258;59.424;13.482;2024-02-23T15:06:32;14.35;;;3.17;;
46216;SDS011;47258;59.424;13.482;2024-02-23T15:08:58;9.68;;;2.17;;
46216;SDS011;47258;59.424;13.482;2024-02-23T15:11:24;14.20;;;2.50;;
46216;SDS011;47258;59.424;13.482;2024-02-23T15:13:50;8.93;;;2.40;;
46216;SDS011;47258;59.424;13.482;2024-02-23T15:16:23;12.43;;;1.95;;
46216;SDS011;47258;59.424;13.482;2024-02-23T15:18:52;10.40;;;2.72;;
46216;SDS011;47258;59.424;13.482;2024-02-23T15:21:18;8.05;;;2.45;;
46216;SDS011;47258;59.424;13.482;2024-02-23T15:23:44;6.50;;;1.77;;
46216;SDS011;47258;59.424;13.482;2024-02-23T15:26:10;9.45;;;2.35;;
46216;SDS011;47258;59.424;13.482;2024-02-23T15:28:37;9.05;;;1.90;;
46216;SDS011;47258;59.424;13.482;2024-02-23T15:31:02;6.95;;;2.17;;
46216;SDS011;47258;59.424;13.482;2024-02-23T15:33:28;22.73;;;2.58;;